sensor_id;sensor_type;location;lat;lon;timestamp;P1;durP1;ratioP1;P2;durP2;ratioP2
64029;SDS011;50277;52.064;4.492;2022-12-20T00:01:11;5.82;;;3.08;;
64029;SDS011;50277;52.064;4.492;2022-12-20T00:03:38;5.47;;;2.90;;
64029;SDS011;50277;52.064;4.492;2022-12-20T00:06:04;3.33;;;2.65;;
64029;SDS011;50277;52.064;4.492;2022-12-20T00:08:29;5.65;;;3.10;;
64029;SDS011;50277;52.064;4.492;2022-12-20T00:10:55;7.40;;;3.17;;
64029;SDS011;50277;52.064;4.492;2022-12-20T00:13:20;4.78;;;2.83;;
64029;SDS011;50277;52.064;4.492;2022-12-20T00:15:46;4.90;;;2.80;;
64029;SDS011;50277;52.064;4.492;2022-12-20T00:18:11;5.63;;;2.92;;
64029;SDS011;50277;52.064;4.492;2022-12-20T00:20:37;3.30;;;2.47;;
64029;SDS011;50277;52.064;4.492;2022-12-20T00:23:02;3.83;;;2.90;;
64029;SDS011;50277;52.064;4.492;2022-12-20T00:25:28;3.97;;;3.15;;
64029;SDS011;50277;52.064;4.492;2022-12-20T00:27:53;3.70;;;2.60;;
64029;SDS011;50277;52.064;4.492;2022-12-20T00:30:19;3.88;;;2.80;;
64029;SDS011;50277;52.064;4.492;2022-12-20T00:32:44;3.25;;;2.78;;
64029;SDS011;50277;52.064;4.492;2022-12-20T00:35:10;6.85;;;3.15;;
64029;SDS011;50277;52.064;4.492;2022-12-20T00:37:36;8.77;;;3.17;;
64029;SDS011;50277;52.064;4.492;2022-12-20T00:40:02;6.18;;;2.80;;
64029;SDS011;50277;52.064;4.492;2022-12-20T00:42:28;8.88;;;3.00;;
64029;SDS011;50277;52.064;4.492;2022-12-20T00:44:53;6.07;;;3.13;;
64029;SDS011;50277;52.064;4.492;2022-12-20T00:47:19;5.65;;;3.10;;
64029;SDS011;50277;52.064;4.492;2022-12-20T00:49:44;3.90;;;2.83;;
64029;SDS011;50277;52.064;4.492;2022-12-20T00:52:09;4.93;;;2.90;;
64029;SDS011;50277;52.064;4.492;2022-12-20T00:54:35;4.35;;;2.88;;
64029;SDS011;50277;52.064;4.492;2022-12-20T00:57:00;3.38;;;2.80;;
64029;SDS011;50277;52.064;4.492;2022-12-20T00:59:25;5.00;;;3.20;;
64029;SDS011;50277;52.064;4.492;2022-12-20T01:01:51;4.15;;;3.05;;
64029;SDS011;50277;52.064;4.492;2022-12-20T01:04:16;6.68;;;2.90;;
64029;SDS011;50277;52.064;4.492;2022-12-20T01:06:41;5.25;;;2.92;;
64029;SDS011;50277;52.064;4.492;2022-12-20T01:09:07;7.50;;;3.28;;
64029;SDS011;50277;52.064;4.492;2022-12-20T01:11:33;5.45;;;2.92;;
64029;SDS011;50277;52.064;4.492;2022-12-20T01:14:09;3.30;;;3.00;;
64029;SDS011;50277;52.064;4.492;2022-12-20T01:16:38;6.15;;;3.30;;
64029;SDS011;50277;52.064;4.492;2022-12-20T01:19:09;4.93;;;3.13;;
64029;SDS011;50277;52.064;4.492;2022-12-20T01:21:36;6.00;;;3.38;;
64029;SDS011;50277;52.064;4.492;2022-12-20T01:24:03;6.60;;;3.20;;
64029;SDS011;50277;52.064;4.492;2022-12-20T01:26:29;3.60;;;3.10;;
64029;SDS011;50277;52.064;4.492;2022-12-20T01:28:56;3.90;;;3.28;;
64029;SDS011;50277;52.064;4.492;2022-12-20T01:33:49;4.38;;;2.70;;
64029;SDS011;50277;52.064;4.492;2022-12-20T01:36:19;5.03;;;3.05;;
64029;SDS011;50277;52.064;4.492;2022-12-20T01:38:54;4.30;;;2.83;;
64029;SDS011;50277;52.064;4.492;2022-12-20T01:41:30;3.80;;;2.90;;
64029;SDS011;50277;52.064;4.492;2022-12-20T01:43:57;8.55;;;3.50;;
64029;SDS011;50277;52.064;4.492;2022-12-20T01:46:24;4.80;;;2.70;;
64029;SDS011;50277;52.064;4.492;2022-12-20T01:48:53;5.70;;;3.45;;
64029;SDS011;50277;52.064;4.492;2022-12-20T01:51:23;4.93;;;2.63;;
64029;SDS011;50277;52.064;4.492;2022-12-20T01:53:50;3.72;;;2.92;;
64029;SDS011;50277;52.064;4.492;2022-12-20T01:56:20;5.43;;;2.97;;
64029;SDS011;50277;52.064;4.492;2022-12-20T01:58:45;6.63;;;3.40;;
64029;SDS011;50277;52.064;4.492;2022-12-20T02:01:12;3.92;;;2.70;;
64029;SDS011;50277;52.064;4.492;2022-12-20T02:03:38;4.28;;;3.00;;
64029;SDS011;50277;52.064;4.492;2022-12-20T02:06:21;7.88;;;3.28;;
64029;SDS011;50277;52.064;4.492;2022-12-20T02:08:48;4.22;;;3.60;;
64029;SDS011;50277;52.064;4.492;2022-12-20T02:11:31;5.60;;;3.78;;
64029;SDS011;50277;52.064;4.492;2022-12-20T02:16:51;5.60;;;3.45;;
64029;SDS011;50277;52.064;4.492;2022-12-20T02:19:46;4.22;;;3.60;;
64029;SDS011;50277;52.064;4.492;2022-12-20T02:25:19;4.68;;;3.20;;
64029;SDS011;50277;52.064;4.492;2022-12-20T02:28:44;4.40;;;3.13;;
64029;SDS011;50277;52.064;4.492;2022-12-20T02:31:18;8.45;;;3.65;;
64029;SDS011;50277;52.064;4.492;2022-12-20T02:33:46;8.10;;;3.92;;
64029;SDS011;50277;52.064;4.492;2022-12-20T02:36:13;6.45;;;3.58;;
64029;SDS011;50277;52.064;4.492;2022-12-20T02:38:42;4.50;;;3.55;;
64029;SDS011;50277;52.064;4.492;2022-12-20T02:44:16;5.78;;;3.80;;
64029;SDS011;50277;52.064;4.492;2022-12-20T02:47:03;5.45;;;3.72;;
64029;SDS011;50277;52.064;4.492;2022-12-20T02:49:31;6.37;;;3.43;;
64029;SDS011;50277;52.064;4.492;2022-12-20T02:51:58;4.68;;;3.38;;
64029;SDS011;50277;52.064;4.492;2022-12-20T02:54:24;6.20;;;3.63;;
64029;SDS011;50277;52.064;4.492;2022-12-20T02:56:52;5.93;;;4.05;;
64029;SDS011;50277;52.064;4.492;2022-12-20T02:59:21;6.32;;;3.15;;
64029;SDS011;50277;52.064;4.492;2022-12-20T03:01:50;4.15;;;3.47;;
64029;SDS011;50277;52.064;4.492;2022-12-20T03:06:59;3.55;;;3.25;;
64029;SDS011;50277;52.064;4.492;2022-12-20T03:09:33;6.72;;;3.63;;
64029;SDS011;50277;52.064;4.492;2022-12-20T03:12:00;7.18;;;3.28;;
64029;SDS011;50277;52.064;4.492;2022-12-20T03:14:25;3.80;;;3.20;;
64029;SDS011;50277;52.064;4.492;2022-12-20T03:16:51;6.55;;;3.20;;
64029;SDS011;50277;52.064;4.492;2022-12-20T03:19:17;6.43;;;3.25;;
64029;SDS011;50277;52.064;4.492;2022-12-20T03:21:42;8.23;;;2.90;;
64029;SDS011;50277;52.064;4.492;2022-12-20T03:24:08;5.57;;;3.08;;
64029;SDS011;50277;52.064;4.492;2022-12-20T03:26:35;6.82;;;3.15;;
64029;SDS011;50277;52.064;4.492;2022-12-20T03:29:01;5.78;;;3.25;;
64029;SDS011;50277;52.064;4.492;2022-12-20T03:31:27;5.85;;;3.00;;
64029;SDS011;50277;52.064;4.492;2022-12-20T03:33:53;5.25;;;3.10;;
64029;SDS011;50277;52.064;4.492;2022-12-20T03:36:18;6.10;;;2.90;;
64029;SDS011;50277;52.064;4.492;2022-12-20T03:38:47;5.18;;;2.90;;
64029;SDS011;50277;52.064;4.492;2022-12-20T03:41:13;3.92;;;2.75;;
64029;SDS011;50277;52.064;4.492;2022-12-20T03:43:38;4.43;;;3.05;;
64029;SDS011;50277;52.064;4.492;2022-12-20T03:46:04;3.25;;;2.67;;
64029;SDS011;50277;52.064;4.492;2022-12-20T03:48:29;4.78;;;3.13;;
64029;SDS011;50277;52.064;4.492;2022-12-20T03:50:54;5.93;;;2.90;;
64029;SDS011;50277;52.064;4.492;2022-12-20T03:53:20;5.45;;;2.47;;
64029;SDS011;50277;52.064;4.492;2022-12-20T03:55:45;5.93;;;2.97;;
64029;SDS011;50277;52.064;4.492;2022-12-20T03:58:10;3.90;;;2.67;;
64029;SDS011;50277;52.064;4.492;2022-12-20T04:00:36;3.72;;;2.58;;
64029;SDS011;50277;52.064;4.492;2022-12-20T04:03:01;8.93;;;3.15;;
64029;SDS011;50277;52.064;4.492;2022-12-20T04:05:27;5.32;;;2.80;;
64029;SDS011;50277;52.064;4.492;2022-12-20T04:07:52;5.45;;;2.83;;
64029;SDS011;50277;52.064;4.492;2022-12-20T04:10:17;7.30;;;2.80;;
64029;SDS011;50277;52.064;4.492;2022-12-20T04:12:43;3.03;;;2.50;;
64029;SDS011;50277;52.064;4.492;2022-12-20T04:15:08;7.47;;;3.50;;
64029;SDS011;50277;52.064;4.492;2022-12-20T04:17:34;3.75;;;3.38;;
64029;SDS011;50277;52.064;4.492;2022-12-20T04:19:59;3.72;;;2.80;;
64029;SDS011;50277;52.064;4.492;2022-12-20T04:22:42;4.25;;;2.90;;
64029;SDS011;50277;52.064;4.492;2022-12-20T04:25:11;5.75;;;3.25;;
64029;SDS011;50277;52.064;4.492;2022-12-20T04:27:37;3.15;;;2.72;;
64029;SDS011;50277;52.064;4.492;2022-12-20T04:30:02;8.55;;;3.28;;
64029;SDS011;50277;52.064;4.492;2022-12-20T04:32:28;5.55;;;3.25;;
64029;SDS011;50277;52.064;4.492;2022-12-20T04:34:53;4.25;;;2.83;;
64029;SDS011;50277;52.064;4.492;2022-12-20T04:37:18;7.35;;;3.40;;
64029;SDS011;50277;52.064;4.492;2022-12-20T04:39:44;3.85;;;2.97;;
64029;SDS011;50277;52.064;4.492;2022-12-20T04:42:09;4.32;;;3.63;;
64029;SDS011;50277;52.064;4.492;2022-12-20T04:44:34;4.95;;;3.20;;
64029;SDS011;50277;52.064;4.492;2022-12-20T04:47:00;4.07;;;3.55;;
64029;SDS011;50277;52.064;4.492;2022-12-20T04:49:25;6.05;;;3.35;;
64029;SDS011;50277;52.064;4.492;2022-12-20T04:51:51;5.80;;;3.47;;
64029;SDS011;50277;52.064;4.492;2022-12-20T04:54:16;5.00;;;3.55;;
64029;SDS011;50277;52.064;4.492;2022-12-20T04:56:41;6.38;;;3.70;;
64029;SDS011;50277;52.064;4.492;2022-12-20T04:59:07;4.32;;;3.40;;
64029;SDS011;50277;52.064;4.492;2022-12-20T05:01:32;4.70;;;3.45;;
64029;SDS011;50277;52.064;4.492;2022-12-20T05:03:57;6.78;;;3.30;;
64029;SDS011;50277;52.064;4.492;2022-12-20T05:06:23;4.63;;;3.28;;
64029;SDS011;50277;52.064;4.492;2022-12-20T05:08:48;6.82;;;3.25;;
64029;SDS011;50277;52.064;4.492;2022-12-20T05:11:14;4.88;;;3.30;;
64029;SDS011;50277;52.064;4.492;2022-12-20T05:13:39;4.65;;;2.90;;
64029;SDS011;50277;52.064;4.492;2022-12-20T05:16:05;5.32;;;3.17;;
64029;SDS011;50277;52.064;4.492;2022-12-20T05:18:31;3.47;;;3.08;;
64029;SDS011;50277;52.064;4.492;2022-12-20T05:20:57;4.22;;;3.00;;
64029;SDS011;50277;52.064;4.492;2022-12-20T05:23:41;5.43;;;3.15;;
64029;SDS011;50277;52.064;4.492;2022-12-20T05:26:26;3.42;;;3.10;;
64029;SDS011;50277;52.064;4.492;2022-12-20T05:28:54;3.03;;;2.83;;
64029;SDS011;50277;52.064;4.492;2022-12-20T05:31:19;3.20;;;2.90;;
64029;SDS011;50277;52.064;4.492;2022-12-20T05:33:44;3.97;;;2.83;;
64029;SDS011;50277;52.064;4.492;2022-12-20T05:36:10;3.65;;;2.70;;
64029;SDS011;50277;52.064;4.492;2022-12-20T05:38:35;8.82;;;2.88;;
64029;SDS011;50277;52.064;4.492;2022-12-20T05:41:00;4.78;;;2.85;;
64029;SDS011;50277;52.064;4.492;2022-12-20T05:43:28;7.05;;;3.05;;
64029;SDS011;50277;52.064;4.492;2022-12-20T05:45:54;4.63;;;2.92;;
64029;SDS011;50277;52.064;4.492;2022-12-20T05:48:19;3.53;;;3.20;;
64029;SDS011;50277;52.064;4.492;2022-12-20T05:50:45;5.47;;;2.75;;
64029;SDS011;50277;52.064;4.492;2022-12-20T05:53:11;9.05;;;2.80;;
64029;SDS011;50277;52.064;4.492;2022-12-20T05:55:37;4.97;;;3.08;;
64029;SDS011;50277;52.064;4.492;2022-12-20T05:58:04;8.20;;;3.17;;
64029;SDS011;50277;52.064;4.492;2022-12-20T06:00:30;4.88;;;2.92;;
64029;SDS011;50277;52.064;4.492;2022-12-20T06:02:55;7.57;;;3.10;;
64029;SDS011;50277;52.064;4.492;2022-12-20T06:05:20;3.65;;;3.00;;
64029;SDS011;50277;52.064;4.492;2022-12-20T06:07:46;5.65;;;3.33;;
64029;SDS011;50277;52.064;4.492;2022-12-20T06:10:11;8.00;;;3.72;;
64029;SDS011;50277;52.064;4.492;2022-12-20T06:12:37;5.45;;;3.03;;
64029;SDS011;50277;52.064;4.492;2022-12-20T06:15:02;4.57;;;3.40;;
64029;SDS011;50277;52.064;4.492;2022-12-20T06:17:28;6.35;;;3.05;;
64029;SDS011;50277;52.064;4.492;2022-12-20T06:19:53;5.97;;;3.30;;
64029;SDS011;50277;52.064;4.492;2022-12-20T06:22:18;4.43;;;2.88;;
64029;SDS011;50277;52.064;4.492;2022-12-20T06:24:44;6.93;;;3.35;;
64029;SDS011;50277;52.064;4.492;2022-12-20T06:27:09;5.20;;;3.30;;
64029;SDS011;50277;52.064;4.492;2022-12-20T06:29:35;7.63;;;3.50;;
64029;SDS011;50277;52.064;4.492;2022-12-20T06:32:01;7.20;;;3.05;;
64029;SDS011;50277;52.064;4.492;2022-12-20T06:34:29;6.43;;;3.20;;
64029;SDS011;50277;52.064;4.492;2022-12-20T06:36:55;5.63;;;2.95;;
64029;SDS011;50277;52.064;4.492;2022-12-20T06:39:20;7.90;;;3.08;;
64029;SDS011;50277;52.064;4.492;2022-12-20T06:41:46;6.55;;;2.90;;
64029;SDS011;50277;52.064;4.492;2022-12-20T06:44:11;11.90;;;3.15;;
64029;SDS011;50277;52.064;4.492;2022-12-20T06:46:37;12.95;;;2.90;;
64029;SDS011;50277;52.064;4.492;2022-12-20T06:49:02;7.53;;;2.65;;
64029;SDS011;50277;52.064;4.492;2022-12-20T06:51:27;12.10;;;2.90;;
64029;SDS011;50277;52.064;4.492;2022-12-20T06:53:53;7.63;;;3.53;;
64029;SDS011;50277;52.064;4.492;2022-12-20T06:56:18;16.05;;;3.50;;
64029;SDS011;50277;52.064;4.492;2022-12-20T06:58:44;5.80;;;2.83;;
64029;SDS011;50277;52.064;4.492;2022-12-20T07:01:10;6.97;;;2.65;;
64029;SDS011;50277;52.064;4.492;2022-12-20T07:03:36;8.30;;;2.83;;
64029;SDS011;50277;52.064;4.492;2022-12-20T07:06:01;6.03;;;3.03;;
64029;SDS011;50277;52.064;4.492;2022-12-20T07:08:26;5.10;;;2.50;;
64029;SDS011;50277;52.064;4.492;2022-12-20T07:10:52;6.50;;;2.45;;
64029;SDS011;50277;52.064;4.492;2022-12-20T07:13:18;5.85;;;2.55;;
64029;SDS011;50277;52.064;4.492;2022-12-20T07:15:44;13.50;;;2.50;;
64029;SDS011;50277;52.064;4.492;2022-12-20T07:18:09;21.20;;;3.25;;
64029;SDS011;50277;52.064;4.492;2022-12-20T07:20:35;9.23;;;2.80;;
64029;SDS011;50277;52.064;4.492;2022-12-20T07:23:00;7.95;;;2.50;;
64029;SDS011;50277;52.064;4.492;2022-12-20T07:25:26;3.53;;;2.13;;
64029;SDS011;50277;52.064;4.492;2022-12-20T07:27:52;5.80;;;2.72;;
64029;SDS011;50277;52.064;4.492;2022-12-20T07:30:18;7.10;;;2.70;;
64029;SDS011;50277;52.064;4.492;2022-12-20T07:32:44;3.08;;;2.25;;
64029;SDS011;50277;52.064;4.492;2022-12-20T07:35:10;7.43;;;2.50;;
64029;SDS011;50277;52.064;4.492;2022-12-20T07:37:37;7.20;;;2.92;;
64029;SDS011;50277;52.064;4.492;2022-12-20T07:40:03;6.00;;;2.28;;
64029;SDS011;50277;52.064;4.492;2022-12-20T07:42:29;8.88;;;2.22;;
64029;SDS011;50277;52.064;4.492;2022-12-20T07:44:54;11.00;;;3.17;;
64029;SDS011;50277;52.064;4.492;2022-12-20T07:47:19;6.80;;;2.50;;
64029;SDS011;50277;52.064;4.492;2022-12-20T07:49:45;4.57;;;2.55;;
64029;SDS011;50277;52.064;4.492;2022-12-20T07:52:11;4.72;;;2.67;;
64029;SDS011;50277;52.064;4.492;2022-12-20T07:54:39;6.53;;;2.60;;
64029;SDS011;50277;52.064;4.492;2022-12-20T07:57:11;11.43;;;2.65;;
64029;SDS011;50277;52.064;4.492;2022-12-20T07:59:39;4.00;;;2.30;;
64029;SDS011;50277;52.064;4.492;2022-12-20T08:02:12;15.10;;;2.75;;
64029;SDS011;50277;52.064;4.492;2022-12-20T08:04:39;4.07;;;2.58;;
64029;SDS011;50277;52.064;4.492;2022-12-20T08:07:05;3.88;;;2.50;;
64029;SDS011;50277;52.064;4.492;2022-12-20T08:09:34;6.68;;;2.38;;
64029;SDS011;50277;52.064;4.492;2022-12-20T08:12:01;7.05;;;2.70;;
64029;SDS011;50277;52.064;4.492;2022-12-20T08:14:26;9.98;;;2.92;;
64029;SDS011;50277;52.064;4.492;2022-12-20T08:16:52;4.72;;;2.47;;
64029;SDS011;50277;52.064;4.492;2022-12-20T08:19:17;3.67;;;2.80;;
64029;SDS011;50277;52.064;4.492;2022-12-20T08:21:42;3.20;;;2.35;;
64029;SDS011;50277;52.064;4.492;2022-12-20T08:24:08;8.55;;;2.70;;
64029;SDS011;50277;52.064;4.492;2022-12-20T08:26:39;4.07;;;2.25;;
64029;SDS011;50277;52.064;4.492;2022-12-20T08:29:05;3.22;;;2.47;;
64029;SDS011;50277;52.064;4.492;2022-12-20T08:31:31;4.38;;;2.33;;
64029;SDS011;50277;52.064;4.492;2022-12-20T08:33:57;4.07;;;2.63;;
64029;SDS011;50277;52.064;4.492;2022-12-20T08:36:22;8.65;;;2.45;;
64029;SDS011;50277;52.064;4.492;2022-12-20T08:38:48;4.63;;;2.10;;
64029;SDS011;50277;52.064;4.492;2022-12-20T08:41:13;6.15;;;2.25;;
64029;SDS011;50277;52.064;4.492;2022-12-20T08:43:40;4.72;;;2.38;;
64029;SDS011;50277;52.064;4.492;2022-12-20T08:46:06;4.43;;;2.55;;
64029;SDS011;50277;52.064;4.492;2022-12-20T08:48:33;7.32;;;2.85;;
64029;SDS011;50277;52.064;4.492;2022-12-20T08:50:59;5.97;;;2.85;;
64029;SDS011;50277;52.064;4.492;2022-12-20T08:53:27;4.45;;;2.33;;
64029;SDS011;50277;52.064;4.492;2022-12-20T08:55:53;3.90;;;2.35;;
64029;SDS011;50277;52.064;4.492;2022-12-20T08:58:19;4.97;;;2.10;;
64029;SDS011;50277;52.064;4.492;2022-12-20T09:00:45;3.15;;;2.35;;
64029;SDS011;50277;52.064;4.492;2022-12-20T09:03:11;5.93;;;2.22;;
64029;SDS011;50277;52.064;4.492;2022-12-20T09:05:46;3.75;;;2.28;;
64029;SDS011;50277;52.064;4.492;2022-12-20T09:08:13;5.28;;;2.38;;
64029;SDS011;50277;52.064;4.492;2022-12-20T09:10:39;4.93;;;2.50;;
64029;SDS011;50277;52.064;4.492;2022-12-20T09:13:05;6.32;;;2.40;;
64029;SDS011;50277;52.064;4.492;2022-12-20T09:15:32;6.50;;;2.47;;
64029;SDS011;50277;52.064;4.492;2022-12-20T09:17:58;5.57;;;2.40;;
64029;SDS011;50277;52.064;4.492;2022-12-20T09:20:24;3.47;;;2.13;;
64029;SDS011;50277;52.064;4.492;2022-12-20T09:22:49;4.22;;;2.50;;
64029;SDS011;50277;52.064;4.492;2022-12-20T09:25:15;3.03;;;2.60;;
64029;SDS011;50277;52.064;4.492;2022-12-20T09:27:40;8.20;;;2.70;;
64029;SDS011;50277;52.064;4.492;2022-12-20T09:30:06;6.65;;;2.45;;
64029;SDS011;50277;52.064;4.492;2022-12-20T09:32:32;7.13;;;2.70;;
64029;SDS011;50277;52.064;4.492;2022-12-20T09:34:57;9.38;;;2.88;;
64029;SDS011;50277;52.064;4.492;2022-12-20T09:37:23;7.40;;;3.20;;
64029;SDS011;50277;52.064;4.492;2022-12-20T09:39:48;3.28;;;2.42;;
64029;SDS011;50277;52.064;4.492;2022-12-20T09:42:16;6.55;;;3.08;;
64029;SDS011;50277;52.064;4.492;2022-12-20T09:44:44;3.27;;;2.90;;
64029;SDS011;50277;52.064;4.492;2022-12-20T09:47:12;5.63;;;3.00;;
64029;SDS011;50277;52.064;4.492;2022-12-20T09:49:44;10.48;;;3.03;;
64029;SDS011;50277;52.064;4.492;2022-12-20T10:00:34;7.90;;;2.75;;
64029;SDS011;50277;52.064;4.492;2022-12-20T10:03:28;7.15;;;2.65;;
64029;SDS011;50277;52.064;4.492;2022-12-20T10:06:17;7.47;;;2.50;;
64029;SDS011;50277;52.064;4.492;2022-12-20T10:09:03;6.80;;;2.80;;
64029;SDS011;50277;52.064;4.492;2022-12-20T10:17:10;7.22;;;3.08;;
64029;SDS011;50277;52.064;4.492;2022-12-20T10:22:29;6.80;;;2.60;;
64029;SDS011;50277;52.064;4.492;2022-12-20T10:27:45;14.95;;;4.05;;
64029;SDS011;50277;52.064;4.492;2022-12-20T10:30:15;6.15;;;2.88;;
64029;SDS011;50277;52.064;4.492;2022-12-20T10:32:45;3.95;;;2.75;;
64029;SDS011;50277;52.064;4.492;2022-12-20T10:38:06;10.93;;;3.50;;
64029;SDS011;50277;52.064;4.492;2022-12-20T10:43:17;8.77;;;3.38;;
64029;SDS011;50277;52.064;4.492;2022-12-20T10:45:54;10.00;;;3.10;;
64029;SDS011;50277;52.064;4.492;2022-12-20T10:50:59;7.25;;;3.35;;
64029;SDS011;50277;52.064;4.492;2022-12-20T10:53:35;5.28;;;3.30;;
64029;SDS011;50277;52.064;4.492;2022-12-20T10:56:12;6.07;;;3.28;;
64029;SDS011;50277;52.064;4.492;2022-12-20T10:58:50;4.97;;;3.25;;
64029;SDS011;50277;52.064;4.492;2022-12-20T11:01:35;7.85;;;3.63;;
64029;SDS011;50277;52.064;4.492;2022-12-20T11:04:02;4.88;;;3.03;;
64029;SDS011;50277;52.064;4.492;2022-12-20T11:09:11;6.55;;;3.22;;
64029;SDS011;50277;52.064;4.492;2022-12-20T11:11:58;7.63;;;3.42;;
64029;SDS011;50277;52.064;4.492;2022-12-20T11:14:27;6.90;;;3.67;;
64029;SDS011;50277;52.064;4.492;2022-12-20T11:16:53;9.27;;;3.88;;
64029;SDS011;50277;52.064;4.492;2022-12-20T11:22:11;5.60;;;3.40;;
64029;SDS011;50277;52.064;4.492;2022-12-20T11:24:48;6.65;;;3.65;;
64029;SDS011;50277;52.064;4.492;2022-12-20T11:27:24;6.60;;;4.10;;
64029;SDS011;50277;52.064;4.492;2022-12-20T11:35:17;4.88;;;3.67;;
64029;SDS011;50277;52.064;4.492;2022-12-20T11:46:14;8.75;;;4.22;;
64029;SDS011;50277;52.064;4.492;2022-12-20T11:51:21;7.70;;;4.30;;
64029;SDS011;50277;52.064;4.492;2022-12-20T11:54:22;7.90;;;4.50;;
64029;SDS011;50277;52.064;4.492;2022-12-20T11:56:43;7.82;;;3.88;;
64029;SDS011;50277;52.064;4.492;2022-12-20T12:01:49;7.30;;;4.30;;
64029;SDS011;50277;52.064;4.492;2022-12-20T12:04:21;7.53;;;4.13;;
64029;SDS011;50277;52.064;4.492;2022-12-20T12:09:55;8.07;;;5.28;;
64029;SDS011;50277;52.064;4.492;2022-12-20T12:12:32;6.05;;;4.63;;
64029;SDS011;50277;52.064;4.492;2022-12-20T12:20:39;8.00;;;4.78;;
64029;SDS011;50277;52.064;4.492;2022-12-20T12:25:54;7.45;;;4.50;;
64029;SDS011;50277;52.064;4.492;2022-12-20T12:28:19;11.07;;;4.63;;
64029;SDS011;50277;52.064;4.492;2022-12-20T12:30:47;8.40;;;4.43;;
64029;SDS011;50277;52.064;4.492;2022-12-20T12:33:24;11.40;;;4.50;;
64029;SDS011;50277;52.064;4.492;2022-12-20T12:48:58;7.28;;;4.55;;
64029;SDS011;50277;52.064;4.492;2022-12-20T12:51:26;6.97;;;5.22;;
64029;SDS011;50277;52.064;4.492;2022-12-20T12:54:34;6.90;;;4.80;;
64029;SDS011;50277;52.064;4.492;2022-12-20T12:56:49;5.88;;;4.43;;
64029;SDS011;50277;52.064;4.492;2022-12-20T12:59:26;8.10;;;5.40;;
64029;SDS011;50277;52.064;4.492;2022-12-20T13:10:56;14.40;;;5.70;;
64029;SDS011;50277;52.064;4.492;2022-12-20T13:12:55;5.75;;;4.90;;
64029;SDS011;50277;52.064;4.492;2022-12-20T13:20:30;10.00;;;5.32;;
64029;SDS011;50277;52.064;4.492;2022-12-20T13:25:40;6.85;;;5.18;;
64029;SDS011;50277;52.064;4.492;2022-12-20T13:30:42;5.95;;;5.10;;
64029;SDS011;50277;52.064;4.492;2022-12-20T13:35:54;7.38;;;4.88;;
64029;SDS011;50277;52.064;4.492;2022-12-20T13:43:57;7.65;;;5.53;;
64029;SDS011;50277;52.064;4.492;2022-12-20T13:46:36;7.70;;;4.90;;
64029;SDS011;50277;52.064;4.492;2022-12-20T13:49:14;5.43;;;4.93;;
64029;SDS011;50277;52.064;4.492;2022-12-20T13:51:48;8.50;;;5.47;;
64029;SDS011;50277;52.064;4.492;2022-12-20T13:54:31;6.30;;;5.50;;
64029;SDS011;50277;52.064;4.492;2022-12-20T13:56:57;9.88;;;5.72;;
64029;SDS011;50277;52.064;4.492;2022-12-20T13:59:24;7.60;;;5.70;;
64029;SDS011;50277;52.064;4.492;2022-12-20T14:01:52;6.95;;;5.95;;
64029;SDS011;50277;52.064;4.492;2022-12-20T14:04:21;10.50;;;5.85;;
64029;SDS011;50277;52.064;4.492;2022-12-20T14:06:57;8.20;;;5.93;;
64029;SDS011;50277;52.064;4.492;2022-12-20T14:09:34;8.57;;;5.85;;
64029;SDS011;50277;52.064;4.492;2022-12-20T14:12:14;7.90;;;6.40;;
64029;SDS011;50277;52.064;4.492;2022-12-20T14:14:48;15.02;;;6.63;;
64029;SDS011;50277;52.064;4.492;2022-12-20T14:17:32;8.68;;;6.07;;
64029;SDS011;50277;52.064;4.492;2022-12-20T14:20:16;13.85;;;6.60;;
64029;SDS011;50277;52.064;4.492;2022-12-20T14:25:40;7.05;;;6.28;;
64029;SDS011;50277;52.064;4.492;2022-12-20T14:30:59;8.38;;;7.38;;
64029;SDS011;50277;52.064;4.492;2022-12-20T14:33:38;12.05;;;8.00;;
64029;SDS011;50277;52.064;4.492;2022-12-20T14:38:44;10.27;;;7.97;;
64029;SDS011;50277;52.064;4.492;2022-12-20T14:44:02;12.63;;;8.77;;
64029;SDS011;50277;52.064;4.492;2022-12-20T14:46:31;9.32;;;8.07;;
64029;SDS011;50277;52.064;4.492;2022-12-20T14:49:08;9.63;;;8.68;;
64029;SDS011;50277;52.064;4.492;2022-12-20T14:51:41;10.52;;;7.85;;
64029;SDS011;50277;52.064;4.492;2022-12-20T14:54:11;10.85;;;8.15;;
64029;SDS011;50277;52.064;4.492;2022-12-20T14:57:00;12.52;;;8.48;;
64029;SDS011;50277;52.064;4.492;2022-12-20T14:59:27;14.52;;;8.80;;
64029;SDS011;50277;52.064;4.492;2022-12-20T15:01:53;9.40;;;7.82;;
64029;SDS011;50277;52.064;4.492;2022-12-20T15:04:20;12.98;;;8.80;;
64029;SDS011;50277;52.064;4.492;2022-12-20T15:06:49;12.63;;;8.35;;
64029;SDS011;50277;52.064;4.492;2022-12-20T15:09:16;11.07;;;8.48;;
64029;SDS011;50277;52.064;4.492;2022-12-20T15:11:43;12.43;;;7.82;;
64029;SDS011;50277;52.064;4.492;2022-12-20T15:14:31;12.32;;;8.30;;
64029;SDS011;50277;52.064;4.492;2022-12-20T15:16:57;11.80;;;8.10;;
64029;SDS011;50277;52.064;4.492;2022-12-20T15:19:23;10.60;;;8.95;;
64029;SDS011;50277;52.064;4.492;2022-12-20T15:21:48;11.43;;;8.90;;
64029;SDS011;50277;52.064;4.492;2022-12-20T15:24:16;9.95;;;8.85;;
64029;SDS011;50277;52.064;4.492;2022-12-20T15:26:45;11.73;;;8.52;;
64029;SDS011;50277;52.064;4.492;2022-12-20T15:29:15;10.65;;;8.93;;
64029;SDS011;50277;52.064;4.492;2022-12-20T15:31:50;9.98;;;8.93;;
64029;SDS011;50277;52.064;4.492;2022-12-20T15:39:20;10.85;;;8.57;;
64029;SDS011;50277;52.064;4.492;2022-12-20T15:41:47;10.30;;;9.00;;
64029;SDS011;50277;52.064;4.492;2022-12-20T15:44:13;10.38;;;8.48;;
64029;SDS011;50277;52.064;4.492;2022-12-20T15:46:40;10.10;;;9.13;;
64029;SDS011;50277;52.064;4.492;2022-12-20T15:49:12;13.07;;;9.23;;
64029;SDS011;50277;52.064;4.492;2022-12-20T15:51:39;11.60;;;9.35;;
64029;SDS011;50277;52.064;4.492;2022-12-20T15:56:54;10.75;;;9.63;;
64029;SDS011;50277;52.064;4.492;2022-12-20T15:59:19;11.95;;;9.25;;
64029;SDS011;50277;52.064;4.492;2022-12-20T16:01:45;12.98;;;9.65;;
64029;SDS011;50277;52.064;4.492;2022-12-20T16:04:14;11.25;;;9.45;;
64029;SDS011;50277;52.064;4.492;2022-12-20T16:06:42;9.73;;;8.82;;
64029;SDS011;50277;52.064;4.492;2022-12-20T16:09:08;11.75;;;9.80;;
64029;SDS011;50277;52.064;4.492;2022-12-20T16:11:34;10.93;;;9.85;;
64029;SDS011;50277;52.064;4.492;2022-12-20T16:14:00;11.85;;;10.65;;
64029;SDS011;50277;52.064;4.492;2022-12-20T16:16:26;11.57;;;10.10;;
64029;SDS011;50277;52.064;4.492;2022-12-20T16:18:53;13.20;;;10.57;;
64029;SDS011;50277;52.064;4.492;2022-12-20T16:21:21;11.43;;;9.70;;
64029;SDS011;50277;52.064;4.492;2022-12-20T16:23:49;11.60;;;10.40;;
64029;SDS011;50277;52.064;4.492;2022-12-20T16:26:16;12.07;;;10.07;;
64029;SDS011;50277;52.064;4.492;2022-12-20T16:28:43;17.30;;;10.80;;
64029;SDS011;50277;52.064;4.492;2022-12-20T16:31:11;10.88;;;9.40;;
64029;SDS011;50277;52.064;4.492;2022-12-20T16:33:45;11.43;;;10.02;;
64029;SDS011;50277;52.064;4.492;2022-12-20T16:36:11;10.95;;;9.82;;
64029;SDS011;50277;52.064;4.492;2022-12-20T16:38:38;12.20;;;10.45;;
64029;SDS011;50277;52.064;4.492;2022-12-20T16:41:14;12.65;;;9.68;;
64029;SDS011;50277;52.064;4.492;2022-12-20T16:43:44;10.35;;;9.30;;
64029;SDS011;50277;52.064;4.492;2022-12-20T16:46:14;11.15;;;9.68;;
64029;SDS011;50277;52.064;4.492;2022-12-20T16:48:41;10.98;;;9.77;;
64029;SDS011;50277;52.064;4.492;2022-12-20T16:54:11;11.40;;;9.48;;
64029;SDS011;50277;52.064;4.492;2022-12-20T16:56:40;10.73;;;9.63;;
64029;SDS011;50277;52.064;4.492;2022-12-20T16:59:06;11.07;;;9.95;;
64029;SDS011;50277;52.064;4.492;2022-12-20T17:01:33;12.57;;;10.30;;
64029;SDS011;50277;52.064;4.492;2022-12-20T17:03:59;14.30;;;10.15;;
64029;SDS011;50277;52.064;4.492;2022-12-20T17:06:25;14.18;;;10.60;;
64029;SDS011;50277;52.064;4.492;2022-12-20T17:08:51;12.60;;;10.65;;
64029;SDS011;50277;52.064;4.492;2022-12-20T17:13:43;13.98;;;11.55;;
64029;SDS011;50277;52.064;4.492;2022-12-20T17:16:13;14.85;;;11.77;;